sensor_id;sensor_type;location;lat;lon;timestamp;pressure;altitude;pressure_sealevel;temperature;humidity
788;BME280;16074;42.708;23.312;2023-04-01T00:01:01;141286.25;;;12.32;72.36
788;BME280;16074;42.708;23.312;2023-04-01T00:03:30;141260.94;;;12.22;71.92
788;BME280;16074;42.708;23.312;2023-04-01T00:06:01;141252.47;;;12.18;72.99
788;BME280;16074;42.708;23.312;2023-04-01T00:08:29;141247.69;;;12.16;72.64
788;BME280;16074;42.708;23.312;2023-04-01T00:10:57;141247.69;;;12.16;73.03
788;BME280;16074;42.708;23.312;2023-04-01T00:13:27;141234.38;;;12.11;74.24
788;BME280;16074;42.708;23.312;2023-04-01T00:15:55;141218.72;;;12.04;74.38
788;BME280;16074;42.708;23.312;2023-04-01T00:18:27;141192.19;;;11.93;75.38
788;BME280;16074;42.708;23.312;2023-04-01T00:20:55;141211.50;;;12.01;75.56
788;BME280;16074;42.708;23.312;2023-04-01T00:23:24;141193.38;;;11.94;76.12
788;BME280;16074;42.708;23.312;2023-04-01T00:25:52;141190.97;;;11.93;75.87
788;BME280;16074;42.708;23.312;2023-04-01T00:28:20;141204.25;;;11.98;75.96
788;BME280;16074;42.708;23.312;2023-04-01T00:30:49;141210.25;;;12.01;75.44
788;BME280;16074;42.708;23.312;2023-04-01T00:33:17;141225.97;;;12.07;75.08
788;BME280;16074;42.708;23.312;2023-04-01T00:35:46;141207.84;;;12.00;75.71
788;BME280;16074;42.708;23.312;2023-04-01T00:38:15;141227.16;;;12.08;74.85
788;BME280;16074;42.708;23.312;2023-04-01T00:40:46;141205.44;;;11.99;76.16
788;BME280;16074;42.708;23.312;2023-04-01T00:43:16;141207.84;;;12.00;76.18
788;BME280;16074;42.708;23.312;2023-04-01T00:45:47;141127.06;;;11.67;75.74
788;BME280;16074;42.708;23.312;2023-04-01T00:48:18;141089.69;;;11.51;77.34
788;BME280;16074;42.708;23.312;2023-04-01T00:50:52;141119.84;;;11.64;76.05
788;BME280;16074;42.708;23.312;2023-04-01T00:53:23;141090.91;;;11.52;76.81
788;BME280;16074;42.708;23.312;2023-04-01T00:55:55;141090.91;;;11.52;76.42
788;BME280;16074;42.708;23.312;2023-04-01T00:58:27;141064.38;;;11.41;76.98
788;BME280;16074;42.708;23.312;2023-04-01T01:00:58;141075.22;;;11.45;77.50
788;BME280;16074;42.708;23.312;2023-04-01T01:03:28;141071.63;;;11.44;77.73
788;BME280;16074;42.708;23.312;2023-04-01T01:06:15;141051.09;;;11.35;78.36
788;BME280;16074;42.708;23.312;2023-04-01T01:09:07;141051.09;;;11.35;78.96
788;BME280;16074;42.708;23.312;2023-04-01T01:11:41;141007.75;;;11.17;80.37
788;BME280;16074;42.708;23.312;2023-04-01T01:14:25;141031.88;;;11.27;79.94
788;BME280;16074;42.708;23.312;2023-04-01T01:16:58;141001.72;;;11.15;80.78
788;BME280;16074;42.708;23.312;2023-04-01T01:19:47;140980.03;;;11.06;81.55
788;BME280;16074;42.708;23.312;2023-04-01T01:22:44;141019.81;;;11.22;80.56
788;BME280;16074;42.708;23.312;2023-04-01T01:25:33;141015.00;;;11.20;81.12
788;BME280;16074;42.708;23.312;2023-04-01T01:28:25;141075.22;;;11.45;80.01
788;BME280;16074;42.708;23.312;2023-04-01T01:31:02;141084.84;;;11.49;79.47
788;BME280;16074;42.708;23.312;2023-04-01T01:33:53;141078.84;;;11.47;79.74
788;BME280;16074;42.708;23.312;2023-04-01T01:36:28;141075.22;;;11.45;80.41
788;BME280;16074;42.708;23.312;2023-04-01T01:39:05;141083.69;;;11.49;79.67
788;BME280;16074;42.708;23.312;2023-04-01T01:41:35;141095.72;;;11.54;79.18
788;BME280;16074;42.708;23.312;2023-04-01T01:44:07;141103.00;;;11.57;79.76
788;BME280;16074;42.708;23.312;2023-04-01T01:46:38;141121.06;;;11.64;78.71
788;BME280;16074;42.708;23.312;2023-04-01T01:49:09;141100.59;;;11.56;78.92
788;BME280;16074;42.708;23.312;2023-04-01T01:51:40;141122.25;;;11.65;78.27
788;BME280;16074;42.708;23.312;2023-04-01T01:54:12;141142.78;;;11.73;76.72
788;BME280;16074;42.708;23.312;2023-04-01T01:56:43;141087.28;;;11.50;76.94
788;BME280;16074;42.708;23.312;2023-04-01T01:59:14;141115.03;;;11.62;76.59
788;BME280;16074;42.708;23.312;2023-04-01T02:01:48;141142.78;;;11.73;76.16
788;BME280;16074;42.708;23.312;2023-04-01T02:04:18;141156.03;;;11.79;75.93
788;BME280;16074;42.708;23.312;2023-04-01T02:06:53;141150.00;;;11.76;75.55
788;BME280;16074;42.708;23.312;2023-04-01T02:09:24;141150.00;;;11.76;76.36
788;BME280;16074;42.708;23.312;2023-04-01T02:11:56;141159.66;;;11.80;76.16
788;BME280;16074;42.708;23.312;2023-04-01T02:14:27;141103.00;;;11.57;76.97
788;BME280;16074;42.708;23.312;2023-04-01T02:17:00;141151.19;;;11.77;76.65
788;BME280;16074;42.708;23.312;2023-04-01T02:19:32;141113.84;;;11.61;76.89
788;BME280;16074;42.708;23.312;2023-04-01T02:22:06;141142.78;;;11.73;75.71
788;BME280;16074;42.708;23.312;2023-04-01T02:24:37;141150.00;;;11.76;75.60
788;BME280;16074;42.708;23.312;2023-04-01T02:27:08;141148.78;;;11.76;75.83
788;BME280;16074;42.708;23.312;2023-04-01T02:29:38;141192.19;;;11.93;74.77
788;BME280;16074;42.708;23.312;2023-04-01T02:32:08;141201.84;;;11.97;75.76
788;BME280;16074;42.708;23.312;2023-04-01T02:34:38;141210.25;;;12.01;74.96
788;BME280;16074;42.708;23.312;2023-04-01T02:37:08;141230.78;;;12.09;75.47
788;BME280;16074;42.708;23.312;2023-04-01T02:39:37;141222.31;;;12.06;75.71
788;BME280;16074;42.708;23.312;2023-04-01T02:42:05;141240.44;;;12.13;74.73
788;BME280;16074;42.708;23.312;2023-04-01T02:44:34;141242.84;;;12.14;74.58
788;BME280;16074;42.708;23.312;2023-04-01T02:47:03;141201.84;;;11.97;74.51
788;BME280;16074;42.708;23.312;2023-04-01T02:49:31;141204.25;;;11.98;75.75
788;BME280;16074;42.708;23.312;2023-04-01T02:51:59;141217.50;;;12.04;75.45
788;BME280;16074;42.708;23.312;2023-04-01T02:54:29;141217.50;;;12.04;76.43
788;BME280;16074;42.708;23.312;2023-04-01T02:56:58;141189.78;;;11.92;77.12
788;BME280;16074;42.708;23.312;2023-04-01T02:59:26;141193.38;;;11.94;76.94
788;BME280;16074;42.708;23.312;2023-04-01T03:01:54;141178.97;;;11.88;78.02
788;BME280;16074;42.708;23.312;2023-04-01T03:04:23;141197.03;;;11.95;77.96
788;BME280;16074;42.708;23.312;2023-04-01T03:06:51;141198.19;;;11.96;77.85
788;BME280;16074;42.708;23.312;2023-04-01T03:09:19;141186.13;;;11.91;78.89
788;BME280;16074;42.708;23.312;2023-04-01T03:11:49;141151.19;;;11.77;79.02
788;BME280;16074;42.708;23.312;2023-04-01T03:14:17;141153.59;;;11.78;79.16
788;BME280;16074;42.708;23.312;2023-04-01T03:16:46;141148.78;;;11.76;79.69
788;BME280;16074;42.708;23.312;2023-04-01T03:19:15;141083.69;;;11.49;80.48
788;BME280;16074;42.708;23.312;2023-04-01T03:21:43;141104.19;;;11.57;81.00
788;BME280;16074;42.708;23.312;2023-04-01T03:24:12;141087.28;;;11.50;80.43
788;BME280;16074;42.708;23.312;2023-04-01T03:26:40;141057.16;;;11.38;81.35
788;BME280;16074;42.708;23.312;2023-04-01T03:29:10;141081.25;;;11.48;82.41
788;BME280;16074;42.708;23.312;2023-04-01T03:31:38;141054.75;;;11.37;82.54
788;BME280;16074;42.708;23.312;2023-04-01T03:34:07;141029.44;;;11.26;82.20
788;BME280;16074;42.708;23.312;2023-04-01T03:36:35;141019.81;;;11.22;84.14
788;BME280;16074;42.708;23.312;2023-04-01T03:39:04;141040.28;;;11.31;85.72
788;BME280;16074;42.708;23.312;2023-04-01T03:41:39;141023.41;;;11.24;86.97
788;BME280;16074;42.708;23.312;2023-04-01T03:44:09;141046.28;;;11.33;89.75
788;BME280;16074;42.708;23.312;2023-04-01T03:46:38;141031.88;;;11.27;90.75
788;BME280;16074;42.708;23.312;2023-04-01T03:49:07;141035.47;;;11.29;90.49
788;BME280;16074;42.708;23.312;2023-04-01T03:51:38;141017.41;;;11.21;90.03
788;BME280;16074;42.708;23.312;2023-04-01T03:54:07;141018.59;;;11.22;88.26
788;BME280;16074;42.708;23.312;2023-04-01T03:56:36;141023.41;;;11.24;91.60
788;BME280;16074;42.708;23.312;2023-04-01T03:59:06;141029.44;;;11.26;90.88
788;BME280;16074;42.708;23.312;2023-04-01T04:01:36;141053.50;;;11.36;91.59
788;BME280;16074;42.708;23.312;2023-04-01T04:04:06;141047.50;;;11.34;91.35
788;BME280;16074;42.708;23.312;2023-04-01T04:06:34;141049.91;;;11.35;93.08
788;BME280;16074;42.708;23.312;2023-04-01T04:09:03;141066.78;;;11.42;92.10
788;BME280;16074;42.708;23.312;2023-04-01T04:11:31;141066.78;;;11.42;90.76
788;BME280;16074;42.708;23.312;2023-04-01T04:14:00;141070.41;;;11.43;90.98
788;BME280;16074;42.708;23.312;2023-04-01T04:16:29;141075.22;;;11.45;90.90
788;BME280;16074;42.708;23.312;2023-04-01T04:19:02;141053.50;;;11.36;89.93
788;BME280;16074;42.708;23.312;2023-04-01T04:21:30;141048.69;;;11.34;89.12
788;BME280;16074;42.708;23.312;2023-04-01T04:23:59;141024.63;;;11.24;87.86
788;BME280;16074;42.708;23.312;2023-04-01T04:26:40;141007.75;;;11.17;88.82
788;BME280;16074;42.708;23.312;2023-04-01T04:29:09;141012.59;;;11.19;88.56
788;BME280;16074;42.708;23.312;2023-04-01T04:31:37;140970.44;;;11.02;89.02
788;BME280;16074;42.708;23.312;2023-04-01T04:34:07;140990.88;;;11.10;88.34
788;BME280;16074;42.708;23.312;2023-04-01T04:36:36;141010.16;;;11.18;88.30
788;BME280;16074;42.708;23.312;2023-04-01T04:39:04;141008.94;;;11.18;88.42
788;BME280;16074;42.708;23.312;2023-04-01T04:41:36;141010.16;;;11.18;88.38
788;BME280;16074;42.708;23.312;2023-04-01T04:44:05;140994.47;;;11.12;84.76
788;BME280;16074;42.708;23.312;2023-04-01T04:46:33;140898.13;;;10.72;88.32
788;BME280;16074;42.708;23.312;2023-04-01T04:49:13;140912.59;;;10.78;88.85
788;BME280;16074;42.708;23.312;2023-04-01T04:51:41;140972.84;;;11.03;86.67
788;BME280;16074;42.708;23.312;2023-04-01T04:54:11;140964.38;;;10.99;86.83
788;BME280;16074;42.708;23.312;2023-04-01T04:56:51;140927.06;;;10.84;88.45
788;BME280;16074;42.708;23.312;2023-04-01T04:59:21;140905.38;;;10.75;87.75
788;BME280;16074;42.708;23.312;2023-04-01T05:02:07;140904.19;;;10.74;87.86
788;BME280;16074;42.708;23.312;2023-04-01T05:04:37;140906.59;;;10.75;88.19
788;BME280;16074;42.708;23.312;2023-04-01T05:07:08;140921.00;;;10.81;87.64
788;BME280;16074;42.708;23.312;2023-04-01T05:09:37;140941.50;;;10.90;87.06
788;BME280;16074;42.708;23.312;2023-04-01T05:12:06;140896.94;;;10.71;87.76
788;BME280;16074;42.708;23.312;2023-04-01T05:14:54;140868.03;;;10.60;87.66
788;BME280;16074;42.708;23.312;2023-04-01T05:17:23;140924.66;;;10.83;87.01
788;BME280;16074;42.708;23.312;2023-04-01T05:19:53;140912.59;;;10.78;85.05
788;BME280;16074;42.708;23.312;2023-04-01T05:22:21;140936.69;;;10.88;84.11
788;BME280;16074;42.708;23.312;2023-04-01T05:24:50;140894.53;;;10.70;86.10
788;BME280;16074;42.708;23.312;2023-04-01T05:27:18;140882.50;;;10.66;86.85
788;BME280;16074;42.708;23.312;2023-04-01T05:29:47;140892.13;;;10.69;87.14
788;BME280;16074;42.708;23.312;2023-04-01T05:32:50;140917.41;;;10.80;84.47
788;BME280;16074;42.708;23.312;2023-04-01T05:35:20;140901.78;;;10.73;84.20
788;BME280;16074;42.708;23.312;2023-04-01T05:37:48;140881.28;;;10.65;86.04
788;BME280;16074;42.708;23.312;2023-04-01T05:40:17;140919.81;;;10.81;85.62
788;BME280;16074;42.708;23.312;2023-04-01T05:42:46;140974.00;;;11.03;82.61
788;BME280;16074;42.708;23.312;2023-04-01T05:45:15;140974.00;;;11.03;81.47
788;BME280;16074;42.708;23.312;2023-04-01T05:48:02;141028.22;;;11.26;80.25
788;BME280;16074;42.708;23.312;2023-04-01T05:50:39;141063.16;;;11.40;79.09
788;BME280;16074;42.708;23.312;2023-04-01T05:53:09;141066.78;;;11.42;78.90
788;BME280;16074;42.708;23.312;2023-04-01T05:55:41;141099.38;;;11.55;78.67
788;BME280;16074;42.708;23.312;2023-04-01T05:58:09;141141.53;;;11.73;78.21
788;BME280;16074;42.708;23.312;2023-04-01T06:00:40;141172.91;;;11.86;74.20
788;BME280;16074;42.708;23.312;2023-04-01T06:03:09;141200.63;;;11.97;73.02
788;BME280;16074;42.708;23.312;2023-04-01T06:05:41;141254.88;;;12.19;73.26
788;BME280;16074;42.708;23.312;2023-04-01T06:08:12;141306.78;;;12.41;71.01
788;BME280;16074;42.708;23.312;2023-04-01T06:11:03;141387.59;;;12.74;70.39
788;BME280;16074;42.708;23.312;2023-04-01T06:13:42;141454.00;;;13.02;68.06
788;BME280;16074;42.708;23.312;2023-04-01T06:16:23;141531.25;;;13.33;67.03
788;BME280;16074;42.708;23.312;2023-04-01T06:19:19;141609.72;;;13.66;65.06
788;BME280;16074;42.708;23.312;2023-04-01T06:22:13;141677.34;;;13.94;62.42
788;BME280;16074;42.708;23.312;2023-04-01T06:27:54;141792.16;;;14.41;61.25
788;BME280;16074;42.708;23.312;2023-04-01T06:30:40;141812.69;;;14.49;59.50
788;BME280;16074;42.708;23.312;2023-04-01T06:33:23;141822.38;;;14.53;58.46
788;BME280;16074;42.708;23.312;2023-04-01T06:36:06;141844.13;;;14.62;58.44
788;BME280;16074;42.708;23.312;2023-04-01T06:38:52;141864.72;;;14.71;58.51
788;BME280;16074;42.708;23.312;2023-04-01T06:41:38;141848.97;;;14.64;57.91
788;BME280;16074;42.708;23.312;2023-04-01T06:44:17;141887.66;;;14.80;57.91
788;BME280;16074;42.708;23.312;2023-04-01T06:47:22;141871.91;;;14.74;57.81
788;BME280;16074;42.708;23.312;2023-04-01T06:50:21;141896.09;;;14.84;58.06
788;BME280;16074;42.708;23.312;2023-04-01T06:53:35;141921.50;;;14.94;58.15
788;BME280;16074;42.708;23.312;2023-04-01T06:56:28;141936.03;;;15.00;58.27
788;BME280;16074;42.708;23.312;2023-04-01T06:59:05;141904.59;;;14.87;58.77
788;BME280;16074;42.708;23.312;2023-04-01T07:01:39;141914.25;;;14.91;58.82
788;BME280;16074;42.708;23.312;2023-04-01T07:04:13;141929.97;;;14.98;59.04
788;BME280;16074;42.708;23.312;2023-04-01T07:06:47;141927.53;;;14.97;59.27
788;BME280;16074;42.708;23.312;2023-04-01T07:09:20;141923.94;;;14.95;59.62
788;BME280;16074;42.708;23.312;2023-04-01T07:12:23;141937.22;;;15.01;59.75
788;BME280;16074;42.708;23.312;2023-04-01T07:15:18;141961.41;;;15.11;60.02
788;BME280;16074;42.708;23.312;2023-04-01T07:17:52;142002.59;;;15.28;59.71
788;BME280;16074;42.708;23.312;2023-04-01T07:20:24;142006.19;;;15.29;59.63
788;BME280;16074;42.708;23.312;2023-04-01T07:22:56;142021.88;;;15.36;59.95
788;BME280;16074;42.708;23.312;2023-04-01T07:25:51;142014.63;;;15.33;60.07
788;BME280;16074;42.708;23.312;2023-04-01T07:28:32;141991.63;;;15.23;60.80
788;BME280;16074;42.708;23.312;2023-04-01T07:31:39;141992.84;;;15.24;60.92
788;BME280;16074;42.708;23.312;2023-04-01T07:34:20;142017.06;;;15.34;60.34
788;BME280;16074;42.708;23.312;2023-04-01T07:36:56;141991.63;;;15.23;60.27
788;BME280;16074;42.708;23.312;2023-04-01T07:39:37;142021.88;;;15.36;59.92
788;BME280;16074;42.708;23.312;2023-04-01T07:42:22;142075.13;;;15.57;59.84
788;BME280;16074;42.708;23.312;2023-04-01T07:45:01;142040.06;;;15.43;60.01
788;BME280;16074;42.708;23.312;2023-04-01T07:47:45;142073.94;;;15.57;59.90
788;BME280;16074;42.708;23.312;2023-04-01T07:50:21;142099.34;;;15.67;59.08
788;BME280;16074;42.708;23.312;2023-04-01T07:53:02;142112.63;;;15.73;58.92
788;BME280;16074;42.708;23.312;2023-04-01T07:55:40;142142.91;;;15.85;58.60
788;BME280;16074;42.708;23.312;2023-04-01T07:58:18;142169.47;;;15.96;57.88
788;BME280;16074;42.708;23.312;2023-04-01T08:00:59;142156.19;;;15.91;57.87
788;BME280;16074;42.708;23.312;2023-04-01T08:03:55;142174.31;;;15.98;57.61
788;BME280;16074;42.708;23.312;2023-04-01T08:06:33;142167.06;;;15.95;57.94
788;BME280;16074;42.708;23.312;2023-04-01T08:09:14;142181.59;;;16.01;57.85
788;BME280;16074;42.708;23.312;2023-04-01T08:12:10;142198.53;;;16.08;57.87
788;BME280;16074;42.708;23.312;2023-04-01T08:15:08;142200.97;;;16.09;57.41
788;BME280;16074;42.708;23.312;2023-04-01T08:18:05;142207.03;;;16.12;57.55
788;BME280;16074;42.708;23.312;2023-04-01T08:20:41;142226.34;;;16.20;57.50
788;BME280;16074;42.708;23.312;2023-04-01T08:23:16;142220.34;;;16.17;57.13
788;BME280;16074;42.708;23.312;2023-04-01T08:25:49;142207.03;;;16.12;57.47
788;BME280;16074;42.708;23.312;2023-04-01T08:28:24;142237.28;;;16.24;57.72
788;BME280;16074;42.708;23.312;2023-04-01T08:31:00;142274.84;;;16.40;57.30
788;BME280;16074;42.708;23.312;2023-04-01T08:33:35;142325.72;;;16.61;56.30
788;BME280;16074;42.708;23.312;2023-04-01T08:36:11;142377.78;;;16.82;55.77
788;BME280;16074;42.708;23.312;2023-04-01T08:38:47;142394.72;;;16.89;55.23
788;BME280;16074;42.708;23.312;2023-04-01T08:41:33;142440.72;;;17.08;55.27
788;BME280;16074;42.708;23.312;2023-04-01T08:44:57;142500.13;;;17.32;54.89
788;BME280;16074;42.708;23.312;2023-04-01T08:47:50;142606.78;;;17.76;54.19
788;BME280;16074;42.708;23.312;2023-04-01T08:50:46;142757.19;;;18.38;52.81
788;BME280;16074;42.708;23.312;2023-04-01T08:53:34;142920.91;;;19.05;50.24
788;BME280;16074;42.708;23.312;2023-04-01T08:56:15;143096.94;;;19.77;48.85
788;BME280;16074;42.708;23.312;2023-04-01T08:59:05;143271.91;;;20.49;46.38
788;BME280;16074;42.708;23.312;2023-04-01T09:01:50;143459.06;;;21.26;44.24
788;BME280;16074;42.708;23.312;2023-04-01T09:05:04;143668.31;;;22.11;41.36
788;BME280;16074;42.708;23.312;2023-04-01T09:07:47;143805.84;;;22.68;40.00
788;BME280;16074;42.708;23.312;2023-04-01T09:17:55;143822.88;;;22.75;37.64
788;BME280;16074;42.708;23.312;2023-04-01T09:20:46;143805.84;;;22.68;35.78
788;BME280;16074;42.708;23.312;2023-04-01T09:23:47;143783.97;;;22.59;36.20
788;BME280;16074;42.708;23.312;2023-04-01T09:26:38;143755.94;;;22.47;36.50
788;BME280;16074;42.708;23.312;2023-04-01T09:29:24;143712.13;;;22.29;37.36
788;BME280;16074;42.708;23.312;2023-04-01T09:32:35;143607.47;;;21.86;37.08
788;BME280;16074;42.708;23.312;2023-04-01T09:35:36;143523.56;;;21.52;37.59
788;BME280;16074;42.708;23.312;2023-04-01T09:38:20;143471.22;;;21.31;37.91
788;BME280;16074;42.708;23.312;2023-04-01T09:40:55;143461.50;;;21.27;38.08
788;BME280;16074;42.708;23.312;2023-04-01T09:43:48;143448.16;;;21.21;37.97
788;BME280;16074;42.708;23.312;2023-04-01T09:46:26;143455.44;;;21.24;38.15
788;BME280;16074;42.708;23.312;2023-04-01T09:49:26;143467.59;;;21.29;38.04
788;BME280;16074;42.708;23.312;2023-04-01T09:52:14;143387.34;;;20.96;38.66
788;BME280;16074;42.708;23.312;2023-04-01T09:54:58;143371.56;;;20.90;38.99
788;BME280;16074;42.708;23.312;2023-04-01T09:58:08;143381.28;;;20.94;38.60
788;BME280;16074;42.708;23.312;2023-04-01T10:01:27;143417.78;;;21.09;38.13
788;BME280;16074;42.708;23.312;2023-04-01T10:04:17;143416.53;;;21.08;37.80
788;BME280;16074;42.708;23.312;2023-04-01T10:07:10;143384.97;;;20.95;37.96
788;BME280;16074;42.708;23.312;2023-04-01T10:10:25;143382.53;;;20.94;38.75
788;BME280;16074;42.708;23.312;2023-04-01T10:13:20;143330.19;;;20.73;38.96
788;BME280;16074;42.708;23.312;2023-04-01T10:25:57;143329.00;;;20.72;38.86
788;BME280;16074;42.708;23.312;2023-04-01T10:31:59;143315.66;;;20.67;38.33
788;BME280;16074;42.708;23.312;2023-04-01T10:35:18;143309.56;;;20.64;38.42
788;BME280;16074;42.708;23.312;2023-04-01T10:38:16;143252.47;;;20.41;38.83
788;BME280;16074;42.708;23.312;2023-04-01T10:41:14;143104.25;;;19.80;40.65
788;BME280;16074;42.708;23.312;2023-04-01T10:44:35;143075.09;;;19.68;41.55
788;BME280;16074;42.708;23.312;2023-04-01T10:47:48;143037.47;;;19.53;41.44
788;BME280;16074;42.708;23.312;2023-04-01T10:50:38;142975.56;;;19.27;42.17
788;BME280;16074;42.708;23.312;2023-04-01T10:53:34;142933.06;;;19.10;42.18
788;BME280;16074;42.708;23.312;2023-04-01T10:56:36;142914.81;;;19.03;42.53
788;BME280;16074;42.708;23.312;2023-04-01T11:09:26;142803.22;;;18.57;43.41
788;BME280;16074;42.708;23.312;2023-04-01T11:12:39;142805.66;;;18.58;43.72
788;BME280;16074;42.708;23.312;2023-04-01T11:18:48;142815.38;;;18.62;43.74
788;BME280;16074;42.708;23.312;2023-04-01T11:22:01;142788.66;;;18.51;43.59
788;BME280;16074;42.708;23.312;2023-04-01T11:28:33;142672.22;;;18.03;43.93
788;BME280;16074;42.708;23.312;2023-04-01T11:31:28;142672.22;;;18.03;44.87
788;BME280;16074;42.708;23.312;2023-04-01T11:34:04;142577.69;;;17.64;46.70
788;BME280;16074;42.708;23.312;2023-04-01T11:36:42;142521.94;;;17.41;50.98
788;BME280;16074;42.708;23.312;2023-04-01T11:39:25;142100.53;;;15.68;68.70
788;BME280;16074;42.708;23.312;2023-04-01T11:42:10;141672.50;;;13.92;88.60
788;BME280;16074;42.708;23.312;2023-04-01T11:45:15;141431.06;;;12.92;100.00
788;BME280;16074;42.708;23.312;2023-04-01T11:48:20;141266.94;;;12.24;100.00
788;BME280;16074;42.708;23.312;2023-04-01T11:51:11;141116.25;;;11.62;100.00
788;BME280;16074;42.708;23.312;2023-04-01T11:53:53;141013.75;;;11.20;100.00
788;BME280;16074;42.708;23.312;2023-04-01T11:56:42;140958.38;;;10.97;100.00
788;BME280;16074;42.708;23.312;2023-04-01T11:59:43;140927.06;;;10.84;100.00
788;BME280;16074;42.708;23.312;2023-04-01T12:02:23;140922.22;;;10.82;100.00
788;BME280;16074;42.708;23.312;2023-04-01T12:05:03;140919.81;;;10.81;100.00
788;BME280;16074;42.708;23.312;2023-04-01T12:08:00;140916.19;;;10.79;100.00
788;BME280;16074;42.708;23.312;2023-04-01T12:10:39;140940.28;;;10.89;100.00
788;BME280;16074;42.708;23.312;2023-04-01T12:13:23;140958.38;;;10.97;100.00
788;BME280;16074;42.708;23.312;2023-04-01T12:16:10;141002.94;;;11.15;100.00
788;BME280;16074;42.708;23.312;2023-04-01T12:18:47;141046.28;;;11.33;100.00
788;BME280;16074;42.708;23.312;2023-04-01T12:21:23;141077.63;;;11.46;100.00
788;BME280;16074;42.708;23.312;2023-04-01T12:26:58;141170.50;;;11.85;100.00
788;BME280;16074;42.708;23.312;2023-04-01T12:29:49;141189.78;;;11.92;100.00
788;BME280;16074;42.708;23.312;2023-04-01T12:32:30;141187.38;;;11.91;100.00
788;BME280;16074;42.708;23.312;2023-04-01T12:35:13;141147.59;;;11.75;100.00
788;BME280;16074;42.708;23.312;2023-04-01T12:37:50;141109.00;;;11.59;100.00
788;BME280;16074;42.708;23.312;2023-04-01T12:40:35;141086.09;;;11.50;100.00
788;BME280;16074;42.708;23.312;2023-04-01T12:43:49;141092.09;;;11.52;100.00
788;BME280;16074;42.708;23.312;2023-04-01T12:46:25;141092.09;;;11.52;100.00
788;BME280;16074;42.708;23.312;2023-04-01T12:49:25;141116.25;;;11.62;100.00
788;BME280;16074;42.708;23.312;2023-04-01T12:52:07;141095.72;;;11.54;100.00
788;BME280;16074;42.708;23.312;2023-04-01T12:58:10;141104.19;;;11.57;100.00
788;BME280;16074;42.708;23.312;2023-04-01T13:01:09;141125.91;;;11.66;100.00
788;BME280;16074;42.708;23.312;2023-04-01T13:03:53;141128.31;;;11.67;100.00
788;BME280;16074;42.708;23.312;2023-04-01T13:06:32;141145.19;;;11.74;100.00
788;BME280;16074;42.708;23.312;2023-04-01T13:09:18;141158.44;;;11.80;100.00
788;BME280;16074;42.708;23.312;2023-04-01T13:12:13;141154.84;;;11.78;100.00
788;BME280;16074;42.708;23.312;2023-04-01T13:14:57;141154.84;;;11.78;100.00
788;BME280;16074;42.708;23.312;2023-04-01T13:17:36;141150.00;;;11.76;100.00
788;BME280;16074;42.708;23.312;2023-04-01T13:20:14;141163.25;;;11.82;100.00
788;BME280;16074;42.708;23.312;2023-04-01T13:22:55;141209.09;;;12.00;100.00
788;BME280;16074;42.708;23.312;2023-04-01T13:25:35;141213.91;;;12.02;100.00
788;BME280;16074;42.708;23.312;2023-04-01T13:28:10;141252.47;;;12.18;100.00
788;BME280;16074;42.708;23.312;2023-04-01T13:30:46;141277.81;;;12.29;100.00
788;BME280;16074;42.708;23.312;2023-04-01T13:33:24;141334.50;;;12.52;100.00
788;BME280;16074;42.708;23.312;2023-04-01T13:36:07;141422.59;;;12.89;100.00
788;BME280;16074;42.708;23.312;2023-04-01T13:38:48;141672.50;;;13.92;100.00
788;BME280;16074;42.708;23.312;2023-04-01T13:41:29;141871.91;;;14.74;100.00
788;BME280;16074;42.708;23.312;2023-04-01T13:44:09;142082.38;;;15.60;100.00
788;BME280;16074;42.708;23.312;2023-04-01T13:46:53;142215.50;;;16.15;100.00
788;BME280;16074;42.708;23.312;2023-04-01T13:49:49;142374.13;;;16.80;100.00
788;BME280;16074;42.708;23.312;2023-04-01T13:55:26;142708.63;;;18.18;85.59
788;BME280;16074;42.708;23.312;2023-04-01T13:58:20;142837.22;;;18.71;67.64
788;BME280;16074;42.708;23.312;2023-04-01T14:01:00;142979.19;;;19.29;77.44
788;BME280;16074;42.708;23.312;2023-04-01T14:03:54;143110.34;;;19.83;59.65
788;BME280;16074;42.708;23.312;2023-04-01T14:06:37;143099.38;;;19.78;55.55
788;BME280;16074;42.708;23.312;2023-04-01T14:12:13;143071.47;;;19.67;48.41
788;BME280;16074;42.708;23.312;2023-04-01T14:14:55;143092.09;;;19.75;49.11
788;BME280;16074;42.708;23.312;2023-04-01T14:17:34;143286.47;;;20.55;54.03
788;BME280;16074;42.708;23.312;2023-04-01T14:20:22;143337.47;;;20.76;59.78
788;BME280;16074;42.708;23.312;2023-04-01T14:23:06;143500.41;;;21.43;59.53
788;BME280;16074;42.708;23.312;2023-04-01T14:28:35;143511.38;;;21.47;59.87
788;BME280;16074;42.708;23.312;2023-04-01T14:31:20;143527.19;;;21.54;58.49
788;BME280;16074;42.708;23.312;2023-04-01T14:34:00;143618.44;;;21.91;56.50
788;BME280;16074;42.708;23.312;2023-04-01T14:36:43;143657.38;;;22.07;56.68
788;BME280;16074;42.708;23.312;2023-04-01T14:39:29;143802.22;;;22.66;57.50
788;BME280;16074;42.708;23.312;2023-04-01T14:42:17;143909.38;;;23.10;54.20
788;BME280;16074;42.708;23.312;2023-04-01T14:45:06;143976.34;;;23.37;51.80
788;BME280;16074;42.708;23.312;2023-04-01T14:47:47;144144.50;;;24.06;50.53
788;BME280;16074;42.708;23.312;2023-04-01T14:50:19;144251.78;;;24.50;46.85
788;BME280;16074;42.708;23.312;2023-04-01T14:52:57;144298.13;;;24.69;47.60
788;BME280;16074;42.708;23.312;2023-04-01T14:55:31;144366.38;;;24.97;44.96
788;BME280;16074;42.708;23.312;2023-04-01T14:58:12;144383.44;;;25.04;45.09
788;BME280;16074;42.708;23.312;2023-04-01T15:00:51;144410.34;;;25.15;44.47
788;BME280;16074;42.708;23.312;2023-04-01T15:03:26;144378.56;;;25.02;43.83